Temp     Hi    Low   Out    Dew  Wind  Wind   Wind    Hi    Hi   Wind   Heat    THW   THSW                Rain  Solar   Solar Hi Solar   UV    UV    Hi     Heat    Cool    In     In    In     In           Wind  Wind    ISS   Arc.
  Date    Time     Out   Temp   Temp   Hum    Pt. Speed   Dir    Run Speed   Dir  Chill  Index  Index  Index   Bar    Rain  Rate   Rad.  Energy    Rad.  Index  Dose   UV     D-D     D-D    Temp   Hum    Dew   Heat     ET   Samp   Tx   Recept  Int.
---------------------------------------------------------------------------------------------------------------------------------------------------------------------------------------------------------------------------------------------------------
12/13/17 12:30a   39.8   41.0   39.8    15   -4.2   0.0     N   0.00   3.0     N   39.8   37.8   37.8   33.2  30.268  0.00  0.00     0     0.00      0     0.0  0.00   0.0   0.525   0.000   69.4    29   35.7   65.7   0.000   684    2    100.0   30 
12/13/17  1:00a   40.4   40.8   39.6    15   -3.7   0.0    NW   0.00   3.0    NW   40.4   38.4   38.4   33.8  30.261  0.00  0.00     0     0.00      0     0.0  0.00   0.0   0.512   0.000   68.9    28   34.4   65.1   0.000   676    2    100.0   30 
12/13/17  1:30a   40.0   41.4   40.0    15   -4.0   0.0    NW   0.00   1.0    NW   40.0   38.0   38.0   33.4  30.257  0.00  0.00     0     0.00      0     0.0  0.00   0.0   0.521   0.000   68.4    28   34.0   64.6   0.000   676    2    100.0   30 
12/13/17  2:00a   42.9   42.9   40.0    13   -4.7   0.0   ---   0.00   0.0   ---   42.9   40.7   40.7   36.1  30.260  0.00  0.00     0     0.00      0     0.0  0.00   0.0   0.460   0.000   68.0    28   33.7   64.2   0.000   684    2    100.0   30 
12/13/17  2:30a   39.7   43.8   39.7    17   -1.6   0.0   ---   0.00   0.0   ---   39.7   37.8   37.8   33.3  30.253  0.00  0.00     0     0.00      0     0.0  0.00   0.0   0.527   0.000   67.5    28   33.2   63.6   0.000   676    2    100.0   30 
12/13/17  3:00a   39.0   40.6   39.0    18   -1.0   0.0    NW   0.00   1.0    NW   39.0   37.2   37.2   32.7  30.247  0.00  0.00     0     0.00      0     0.0  0.00   0.0   0.542   0.000   67.0    28   32.8   63.0   0.000   681    2    100.0   30 
12/13/17  3:30a   37.4   39.0   37.3    20   -0.1   0.0   ---   0.00   0.0   ---   37.4   35.7   35.7   31.3  30.241  0.00  0.00     0     0.00      0     0.0  0.00   0.0   0.575   0.000   66.7    28   32.5   62.7   0.000   676    2    100.0   30 
12/13/17  4:00a   40.4   40.4   37.5    18    0.2   0.0   ---   0.00   0.0   ---   40.4   38.5   38.5   34.1  30.233  0.00  0.00     0     0.00      0     0.0  0.00   0.0   0.512   0.000   66.4    28   32.3   62.4   0.000   678    2    100.0   30 
12/13/17  4:30a   38.6   40.6   38.6    21    2.0   0.0   ---   0.00   0.0   ---   38.6   36.9   36.9   32.5  30.226  0.00  0.00     0     0.00      0     0.0  0.00   0.0   0.550   0.000   66.1    28   32.0   62.1   0.000   678    2    100.0   30 
12/13/17  5:00a   34.8   38.5   34.8    24    1.6   0.0   ---   0.00   0.0   ---   34.8   33.3   33.3   28.9  30.230  0.00  0.00     0     0.00      0     0.0  0.00   0.0   0.629   0.000   65.6    28   31.6   61.6   0.000   676    2    100.0   30 
12/13/17  5:30a   35.1   35.2   34.1    24    1.9   0.0   ---   0.00   0.0   ---   35.1   33.6   33.6   29.2  30.235  0.00  0.00     0     0.00      0     0.0  0.00   0.0   0.623   0.000   65.3    27   30.4   61.1   0.000   681    2    100.0   30 
12/13/17  6:00a   37.3   37.4   35.2    22    1.9   0.0    NW   0.00   3.0    NW   37.3   35.6   35.6   31.2  30.229  0.00  0.00     0     0.00      0     0.0  0.00   0.0   0.577   0.000   64.9    27   30.1   60.7   0.000   678    2    100.0   30 
12/13/17  6:30a   33.9   37.3   33.9    25    1.7   0.0    NW   0.00   3.0    NW   33.9   32.5   32.5   28.1  30.236  0.00  0.00     0     0.00      0     0.0  0.00   0.0   0.648   0.000   65.1    26   29.3   60.7   0.000   677    2    100.0   30 
12/13/17  7:00a   36.1   36.7   33.7    24    2.7   1.0    NW   0.50   5.0    NW   36.1   34.6   34.6   30.2  30.235  0.00  0.00     0     0.00      0     0.0  0.00   0.0   0.602   0.000   65.8    25   29.0   61.1   0.000   682    2    100.0   30 
12/13/17  7:30a   38.3   38.3   34.9    23    3.7   0.0   ---   0.00   0.0   ---   38.3   36.6   36.6   32.2  30.240  0.00  0.00     0     0.00      0     0.0  0.00   0.0   0.556   0.000   66.4    24   28.5   61.6   0.000   676    2    100.0   30 
12/13/17  8:00a   40.5   40.5   38.4    22    4.6   0.0   ---   0.00   0.0   ---   40.5   38.7   38.7   34.3  30.240  0.00  0.00     0     0.00      0     0.0  0.00   0.0   0.510   0.000   67.9    25   30.8   63.7   0.000   684    2    100.0   30 
12/13/17  8:30a   44.1   44.1   40.4    21    6.6   0.0   ---   0.00   0.0   ---   44.1   42.1   42.1   38.4  30.242  0.00  0.00     0     0.00      0     0.0  0.00   0.0   0.435   0.000   68.4    26   32.1   64.3   0.000   673    2    100.0   30 
12/13/17  9:00a   50.5   50.5   44.1    18    8.5   0.0   ---   0.00   0.0   ---   50.5   48.0   48.0   44.3  30.240  0.00  0.00     0     0.00      0     0.0  0.00   0.0   0.302   0.000   69.9    26   33.4   65.9   0.000   685    2    100.0   30 
12/13/17  9:30a   54.3   54.3   50.5    15    7.5   0.0   ---   0.00   0.0   ---   54.3   50.6   50.6   46.9  30.235  0.00  0.00     0     0.00      0     0.0  0.00   0.0   0.223   0.000   70.1    27   34.5   66.2   0.000   676    2    100.0   30 
12/13/17 10:00a   60.4   60.4   54.6    12    7.5   0.0   ---   0.00   0.0   ---   60.4   55.3   55.3   51.6  30.229  0.00  0.00     0     0.00      0     0.0  0.00   0.0   0.096   0.000   71.1    26   34.5   67.5   0.000   683    2    100.0   30 
12/13/17 10:30a   64.8   64.8   60.7    11    9.0   0.0   ---   0.00   0.0   ---   64.8   59.1   59.1   55.4  30.217  0.00  0.00     0     0.00      0     0.0  0.00   0.0   0.004   0.000   71.2    26   34.5   67.6   0.000   678    2    100.0   30 
12/13/17 11:00a   68.4   68.4   64.8     9    7.3   0.0   ---   0.00   0.0   ---   68.4   62.4   62.4   58.7  30.204  0.00  0.00     0     0.00      0     0.0  0.00   0.0   0.000   0.071   71.4    26   34.7   67.9   0.000   678    2    100.0   30 
12/13/17 11:30a   69.4   70.0   68.4     9    8.0   4.0    NW   2.00  11.0   NNW   69.4   63.7   63.7   60.0  30.190  0.00  0.00     0     0.00      0     0.0  0.00   0.0   0.000   0.092   71.6    26   34.9   68.2   0.000   681    2    100.0   30 
12/13/17 12:00p   68.0   69.4   68.0    11   11.5   7.0   NNW   3.50  14.0   NNW   68.0   62.1   62.1   58.4  30.167  0.00  0.00     0     0.00      0     0.0  0.00   0.0   0.000   0.063   71.8    26   35.0   68.4   0.000   674    2    100.0   30 
12/13/17 12:30p   64.2   67.9   63.8    10    6.4   7.0   NNW   3.50  14.0   NNW   64.2   58.5   58.5   66.8  30.152  0.00  0.00   580    24.94    580     1.9  0.31   1.9   0.017   0.000   71.9    26   35.1   68.6   0.000   682    2    100.0   30 
12/13/17  1:00p   66.2   66.2   64.2     9    5.6   5.0   NNW   2.50  11.0   NNW   66.2   60.2   60.2   68.8  30.146  0.00  0.00   568    24.43    578     1.7  0.27   1.9   0.000   0.025   72.4    26   35.6   69.3   0.017   670    2    100.0   30 
12/13/17  1:30p   68.8   68.8   66.1     7    2.1   2.0   NNW   1.00   9.0   NNW   68.8   62.8   62.8   71.3  30.131  0.00  0.00   535    23.01    554     1.3  0.21   1.5   0.000   0.079   73.0    26   36.1   70.3   0.000   682    2    100.0   30 
12/13/17  2:00p   70.8   70.9   68.8     7    3.6   0.0   NNW   0.00   2.0   NNW   70.8   65.4   65.4   73.7  30.120  0.00  0.00   486    20.90    512     0.8  0.13   1.1   0.000   0.121   73.1    26   36.2   70.5   0.013   683    2    100.0   30 
12/13/17  2:30p   69.3   70.7   69.3     8    5.4   1.0   NNW   0.50   4.0   NNW   69.3   63.5   63.5   71.3  30.112  0.00  0.00   423    18.19    457     0.2  0.03   0.5   0.000   0.090   73.3    27   37.3   70.9   0.000   676    2    100.0   30 
12/13/17  3:00p   69.4   70.1   69.4     8    5.4   0.0   NNW   0.00   4.0   NNW   69.4   63.6   63.6   70.4  30.108  0.00  0.00   347    14.92    385     0.0  0.00   0.0   0.000   0.092   74.5    27   38.3   72.5   0.010   684    2    100.0   30 
12/13/17  3:30p   64.9   69.4   64.9     9    4.6   2.0   NNW   1.00   8.0   NNW   64.9   59.0   59.0   63.5  30.113  0.00  0.00   256    11.01    308     0.0  0.00   0.0   0.002   0.000   75.0    27   38.7   73.1   0.000   671    2    100.0   30 
12/13/17  4:00p   61.2   64.8   61.2    10    4.1   6.0   NNW   3.00  11.0   NNW   61.0   55.9   55.7   56.6  30.117  0.00  0.00   148     6.36    200     0.0  0.00   0.0   0.079   0.000   74.9    26   37.7   72.9   0.008   678    2    100.0   30 
12/13/17  4:30p   59.1   61.2   58.9     9    0.2   3.0   NNW   1.50  11.0   NNW   59.1   54.0   54.0   49.0  30.125  0.00  0.00    41     1.76     95     0.0  0.00   0.0   0.123   0.000   74.2    26   37.1   72.1   0.000   685    2    100.0   30 
12/13/17  5:00p   53.8   59.0   53.8    13    4.0   0.0   WNW   0.00   3.0   WNW   53.8   50.1   50.1   44.3  30.128  0.00  0.00     6     0.26     16     0.0  0.00   0.0   0.233   0.000   73.8    27   37.7   71.6   0.002   669    2    100.0   30 
12/13/17  5:30p   50.0   53.7   50.0    16    5.5   1.0   WNW   0.50   3.0   WNW   50.0   47.5   47.5   41.6  30.126  0.00  0.00     0     0.00      0     0.0  0.00   0.0   0.313   0.000   73.6    27   37.5   71.3   0.000   686    2    100.0   30 
12/13/17  6:00p   46.9   49.9   46.9    17    4.3   0.0   WNW   0.00   3.0   WNW   46.9   44.6   44.6   38.7  30.129  0.00  0.00     0     0.00      0     0.0  0.00   0.0   0.377   0.000   73.6    28   38.5   71.4   0.002   686    2    100.0   30 
12/13/17  6:30p   43.8   46.9   43.8    21    6.3   0.0   WNW   0.00   2.0   WNW   43.8   41.8   41.8   36.0  30.125  0.00  0.00     0     0.00      0     0.0  0.00   0.0   0.442   0.000   73.5    28   38.4   71.3   0.000   670    2    100.0   30 
12/13/17  7:00p   42.6   43.9   42.6    22    6.3   0.0   ---   0.00   0.0   ---   42.6   40.7   40.7   34.9  30.126  0.00  0.00     0     0.00      0     0.0  0.00   0.0   0.467   0.000   73.5    30   40.2   71.5   0.002   685    2    100.0   30 
12/13/17  7:30p   41.0   43.3   41.0    23    6.0   0.0   ---   0.00   0.0   ---   41.0   39.2   39.2   33.3  30.139  0.00  0.00     0     0.00      0     0.0  0.00   0.0   0.500   0.000   73.1    30   39.8   70.9   0.000   684    2    100.0   30 
12/13/17  8:00p   41.6   42.8   40.1    22    5.5   0.0   ---   0.00   0.0   ---   41.6   39.8   39.8   33.9  30.150  0.00  0.00     0     0.00      0     0.0  0.00   0.0   0.488   0.000   73.1    31   40.7   71.0   0.002   670    2    100.0   30 
12/13/17  8:30p   40.9   41.5   39.8    22    4.9   0.0   ---   0.00   0.0   ---   40.9   39.1   39.1   33.2  30.148  0.00  0.00     0     0.00      0     0.0  0.00   0.0   0.502   0.000   73.6    31   41.1   71.7   0.000   686    2    100.0   30 
12/13/17  9:00p   37.4   41.0   37.4    25    4.7   0.0   ---   0.00   0.0   ---   37.4   35.8   35.8   29.9  30.151  0.00  0.00     0     0.00      0     0.0  0.00   0.0   0.575   0.000   73.3    31   40.8   71.3   0.002   622    2     93.3   30 
12/13/17  9:30p   37.9   37.9   36.8    24    4.3   0.0   ---   0.00   0.0   ---   37.9   36.3   36.3   30.4  30.155  0.00  0.00     0     0.00      0     0.0  0.00   0.0   0.565   0.000   73.0    31   40.6   70.8   0.000   671    2    100.0   30 
12/13/17 10:00p   36.6   38.0   36.6    25    4.0   0.0   ---   0.00   0.0   ---   36.6   35.0   35.0   29.1  30.153  0.00  0.00     0     0.00      0     0.0  0.00   0.0   0.592   0.000   72.8    31   40.4   70.5   0.002   683    2    100.0   30 
12/13/17 10:30p   35.0   37.3   34.7    26    3.5   0.0   ---   0.00   0.0   ---   35.0   33.5   33.5   27.6  30.162  0.00  0.00     0     0.00      0     0.0  0.00   0.0   0.625   0.000   73.0    30   39.7   70.7   0.000   684    2    100.0   30 
12/13/17 11:00p   35.3   37.0   34.8    24    2.0   0.0   ---   0.00   0.0   ---   35.3   33.8   33.8   27.9  30.159  0.00  0.00     0     0.00      0     0.0  0.00   0.0   0.619   0.000   72.1    30   38.9   69.3   0.002   672    2    100.0   30 
12/13/17 11:30p   37.8   37.8   34.2    23    3.2   0.0   ---   0.00   0.0   ---   37.8   36.2   36.2   30.3  30.156  0.00  0.00     0     0.00      0     0.0  0.00   0.0   0.567   0.000   71.6    30   38.5   68.5   0.000   684    2    100.0   30 
12/14/17 12:00a   54.6   54.6   37.9     9   -3.2   0.0   ---   0.00   0.0   ---   54.6   50.5   50.5   44.4  30.152  0.00  0.00     0     0.00      0     0.0  0.00   0.0   0.217   0.000   70.9    29   37.0   67.5   0.002   673    2    100.0   30 
12/14/17 12:30a   55.5   56.0   54.7     8   -5.0   0.0   ---   0.00   0.0   ---   55.5   51.1   51.1   45.0  30.143  0.00  0.00     0     0.00      0     0.0  0.00   0.0   0.198   0.000   70.2    29   36.4   66.6   0.000   667    2    100.0   30 
12/14/17  1:00a   55.0   55.7   55.0     9   -2.9   0.0   ---   0.00   0.0   ---   55.0   50.8   50.8   44.7  30.144  0.00  0.00     0     0.00      0     0.0  0.00   0.0   0.208   0.000   69.7    29   36.0   66.0   0.000   669    2    100.0   30 
12/14/17  1:30a   52.5   55.0   52.5    10   -2.6   0.0   ---   0.00   0.0   ---   52.5   49.1   49.1   43.0  30.141  0.00  0.00     0     0.00      0     0.0  0.00   0.0   0.260   0.000   69.2    29   35.6   65.5   0.000   667    2    100.0   30 
12/14/17  2:00a   54.1   54.3   52.5     9   -3.6   0.0   ---   0.00   0.0   ---   54.1   50.1   50.1   44.0  30.145  0.00  0.00     0     0.00      0     0.0  0.00   0.0   0.227   0.000   68.7    29   35.1   65.0   0.000   669    2    100.0   30 
12/14/17  2:30a   37.0   57.5   36.6    17   -3.9   0.0   ---   0.00   0.0   ---   37.0   35.2   35.2    ---  30.139  0.00  0.00   ---      ---    ---     ---   ---   ---   0.583   0.000   68.2    29   34.7   64.5   0.000   674    2    100.0   30 
12/14/17  3:00a   35.0   37.0   35.0    18   -4.3   0.0   ---   0.00   0.0   ---   35.0   33.4   33.4    ---  30.137  0.00  0.00   ---      ---    ---     ---   ---   ---   0.625   0.000   67.7    29   34.3   63.9   0.000   685    2    100.0   30 
12/14/17  3:30a   36.6   36.6   34.3    16   -5.5   0.0   ---   0.00   0.0   ---   36.6   34.9   34.9    ---  30.141  0.00  0.00   ---      ---    ---     ---   ---   ---   0.592   0.000   67.4    29   34.0   63.6   0.000   676    2    100.0   30 
12/14/17  4:00a   41.3   41.3   37.0    12   -7.6   0.0   WNW   0.00   4.0   WNW   41.3   39.2   39.2    ---  30.143  0.00  0.00   ---      ---    ---     ---   ---   ---   0.494   0.000   66.9    29   33.6   63.1   0.000   672    2    100.0   30 
12/14/17  4:30a   45.2   45.2   41.3    10   -8.3   0.0   WNW   0.00   1.0   WNW   45.2   42.8   42.8    ---  30.140  0.00  0.00   ---      ---    ---     ---   ---   ---   0.412   0.000   66.6    29   33.3   62.8   0.000   683    2    100.0   30 
12/14/17  5:00a   49.9   49.9   45.4     9   -6.8   1.0   WNW   0.50   5.0   WNW   49.9   47.2   47.2    ---  30.154  0.00  0.00   ---      ---    ---     ---   ---   ---   0.315   0.000   66.2    29   33.0   62.4   0.000   685    2    100.0   30 
12/14/17  5:30a   55.4   55.4   50.2     8   -5.1   1.0   WNW   0.50   5.0     W   55.4   51.1   51.1    ---  30.158  0.00  0.00   ---      ---    ---     ---   ---   ---   0.200   0.000   65.9    28   31.8   61.9   0.000   675    2    100.0   30 
12/14/17  6:00a   52.0   55.4   52.0    10   -3.0   1.0     W   0.50   5.0     W   52.0   48.7   48.7    ---  30.175  0.00  0.00   ---      ---    ---     ---   ---   ---   0.271   0.000   65.8    28   31.8   61.8   0.000   671    2    100.0   30 
12/14/17  6:30a   54.2   54.2   51.4    11    0.7   1.0     W   0.50  13.0   SSE   54.2   50.3   50.3    ---  30.188  0.00  0.00   ---      ---    ---     ---   ---   ---   0.225   0.000   65.6    28   31.6   61.6   0.000   683    2    100.0   30 
12/14/17  7:00a   55.9   55.9   53.6    12    3.9   2.0    SE   1.00  15.0    SE   55.9   51.6   51.6    ---  30.199  0.00  0.00   ---      ---    ---     ---   ---   ---   0.190   0.000   65.4    28   31.4   61.3   0.000   684    2    100.0   30 
12/14/17  7:30a   57.5   58.3   55.9    11    3.3   8.0    SE   4.00  23.0   ESE   55.5   52.9   50.9    ---  30.206  0.00  0.00   ---      ---    ---     ---   ---   ---   0.156   0.000   66.1    26   30.2   61.6   0.000   680    2    100.0   30 
12/14/17  8:00a   58.3   58.4   57.5    11    3.9   5.0    SE   2.50  13.0    SE   58.0   53.5   53.2    ---  30.205  0.00  0.00   ---      ---    ---     ---   ---   ---   0.140   0.000   67.7    25   30.6   63.3   0.000   668    2    100.0   30 
12/14/17  8:30a   59.8   59.9   58.3    11    5.1   7.0    SE   3.50  18.0     E   59.0   54.7   53.9    ---  30.208  0.00  0.00   ---      ---    ---     ---   ---   ---   0.108   0.000   69.0    25   31.7   64.8   0.000   683    2    100.0   30 
12/14/17  9:00a   61.0   61.0   59.8    11    6.0   8.0    SE   4.00  19.0   ESE   59.7   55.8   54.5    ---  30.213  0.00  0.00   ---      ---    ---     ---   ---   ---   0.083   0.000   70.6    26   34.0   66.8   0.000   683    2    100.0   30 
12/14/17  9:30a   61.4   61.4   60.8    14   11.7  10.0    SE   5.00  22.0   ESE   58.6   56.3   53.5    ---  30.213  0.00  0.00   ---      ---    ---     ---   ---   ---   0.075   0.000   71.2    27   35.5   67.7   0.000   576    2     86.4   30 
12/14/17 10:00a   64.2   64.2   61.4    12   10.5   9.0    SE   4.50  25.0   ESE   62.6   58.6   57.0   64.4  30.201  0.00  0.00   462    19.87    462     0.9  0.14   0.9   0.017   0.000   71.8    31   39.5   68.9   0.008   581    2     87.1   30 
12/14/17 10:30a   66.1   66.1   64.2    10    7.9  10.0    SE   5.00  26.0    SE   64.1   60.2   58.2   64.3  30.199  0.00  0.00   447    19.22    503     0.9  0.14   1.2   0.000   0.023   71.8    26   35.0   68.4   0.000   667    2    100.0   30 
12/14/17 11:00a   66.7   66.9   66.2    10    8.3  12.0    SE   6.00  21.0    SE   63.4   60.8   57.5   63.2  30.206  0.00  0.00   489    21.03    517     1.3  0.21   1.5   0.000   0.035   71.9    25   34.1   68.5   0.019   682    2    100.0   30 
12/14/17 11:30a   67.2   67.2   66.5    10    8.7  10.0    SE   5.00  18.0   ESE   65.2   61.3   59.3   66.3  30.207  0.00  0.00   554    23.83    580     1.5  0.24   1.7   0.000   0.046   72.1    25   34.3   68.8   0.000   671    2    100.0   30 
12/14/17 12:00p   67.5   67.5   66.9    10    8.9  10.0    SE   5.00  20.0   ESE   65.5   61.5   59.5   66.9  30.210  0.00  0.00   581    24.99    584     1.8  0.29   1.8   0.000   0.052   73.1    25   35.2   70.3   0.020   684    2    100.0   30 
12/14/17 12:30p   67.2   67.8   67.1    10    8.7  11.0   ESE   5.50  23.0     E   64.6   61.3   58.7   65.9  30.197  0.00  0.00   579    24.90    584     1.6  0.26   1.7   0.000   0.046   73.5    24   34.5   70.8   0.000   676    2    100.0   30 
12/14/17  1:00p   66.6   67.3   66.4    10    8.2  13.0    SE   6.50  22.0     E   62.8   60.7   56.9   63.7  30.190  0.00  0.00   562    24.17    573     1.6  0.26   1.7   0.000   0.033   73.3    24   34.3   70.5   0.022   678    2    100.0   30 
12/14/17  1:30p   66.4   66.7   66.2    10    8.1  13.0     E   6.50  23.0     E   62.6   60.5   56.7   63.5  30.183  0.00  0.00   529    22.75    548     1.3  0.21   1.4   0.000   0.029   73.0    24   34.1   70.1   0.000   686    2    100.0   30 
12/14/17  2:00p   66.6   66.6   66.2    10    8.2  12.0   ESE   6.00  21.0    SE   63.3   60.7   57.4   64.1  30.190  0.00  0.00   480    20.64    504     0.9  0.14   1.1   0.000   0.033   72.6    24   33.7   69.5   0.021   672    2    100.0   30 
12/14/17  2:30p   65.9   66.6   65.9    10    7.7  11.0   ESE   5.50  21.0     E   63.2   60.0   57.3   63.8  30.194  0.00  0.00   417    17.93    450     0.4  0.06   0.7   0.000   0.019   73.3    23   33.2   70.4   0.000   683    2    100.0   30 
12/14/17  3:00p   65.3   66.1   65.2    11    9.4  12.0    SE   6.00  19.0     E   61.8   59.6   56.1   61.6  30.198  0.00  0.00   343    14.75    381     0.0  0.00   0.0   0.000   0.006   73.3    24   34.3   70.5   0.017   677    2    100.0   30 
12/14/17  3:30p   64.7   65.3   64.6    11    8.9   6.0    SE   3.00  16.0     E   64.7   59.0   59.0   63.5  30.207  0.00  0.00   253    10.88    302     0.0  0.00   0.0   0.006   0.000   73.3    25   35.3   70.7   0.000   679    2    100.0   30 
12/14/17  4:00p   63.1   64.7   63.1    11    7.7   5.0    SE   2.50  15.0   ESE   63.1   57.6   57.6   58.4  30.215  0.00  0.00   144     6.19    197     0.0  0.00   0.0   0.040   0.000   73.3    25   35.3   70.7   0.009   684    2    100.0   30